createdAt,value
2018-07-11T00:00:21.731Z,53.20
2018-07-11T00:01:23.987Z,53.50
2018-07-11T00:02:26.223Z,53.50
2018-07-11T00:03:39.329Z,53.30
2018-07-11T00:04:41.605Z,53.60
2018-07-11T00:05:43.860Z,53.30
2018-07-11T00:06:46.067Z,53.40
2018-07-11T00:07:48.433Z,53.50
2018-07-11T00:08:50.764Z,53.50
2018-07-11T00:09:53.049Z,53.60
2018-07-11T00:10:55.263Z,53.50
2018-07-11T00:11:57.479Z,53.80
2018-07-11T00:13:07.554Z,53.70
2018-07-11T00:14:09.810Z,53.60
2018-07-11T00:15:12.055Z,53.50
2018-07-11T00:16:15.162Z,53.50
2018-07-11T00:17:17.438Z,53.50
2018-07-11T00:18:19.717Z,53.50
2018-07-11T00:19:22.022Z,53.40
2018-07-11T00:20:24.336Z,53.50
2018-07-11T00:21:26.603Z,53.50
2018-07-11T00:22:28.915Z,53.70
2018-07-11T00:23:31.743Z,53.60
2018-07-11T00:24:34.019Z,53.50
2018-07-11T00:25:36.281Z,53.70
2018-07-11T00:26:38.510Z,53.70
2018-07-11T00:27:40.784Z,53.80
2018-07-11T00:29:45.287Z,53.90
2018-07-11T00:30:47.707Z,53.70
2018-07-11T00:31:50.032Z,53.80
2018-07-11T00:32:52.387Z,53.60
2018-07-11T00:33:55.696Z,53.80
2018-07-11T00:34:57.978Z,53.70
2018-07-11T00:36:00.271Z,53.70
2018-07-11T00:37:02.557Z,53.70
2018-07-11T00:38:04.804Z,53.70
2018-07-11T00:39:07.050Z,53.60
2018-07-11T00:40:09.326Z,53.60
2018-07-11T00:41:11.610Z,53.50
2018-07-11T00:42:13.906Z,53.70
2018-07-11T00:43:16.160Z,53.70
2018-07-11T00:44:18.482Z,53.70
2018-07-11T00:45:20.741Z,53.80
2018-07-11T00:46:23.031Z,53.70
2018-07-11T00:47:25.262Z,53.80
2018-07-11T00:48:27.506Z,53.90
2018-07-11T00:49:29.769Z,53.80
2018-07-11T00:50:32.243Z,53.90
2018-07-11T00:51:35.041Z,53.90
2018-07-11T00:52:37.290Z,54.10
2018-07-11T00:53:39.552Z,53.90
2018-07-11T00:54:41.968Z,54.10
2018-07-11T00:55:45.214Z,54.00
2018-07-11T00:57:49.786Z,54.30
2018-07-11T00:58:59.105Z,54.30
2018-07-11T01:00:01.428Z,54.40
2018-07-11T01:01:16.269Z,54.40
2018-07-11T01:02:18.539Z,54.70
2018-07-11T01:03:20.803Z,54.60
2018-07-11T01:04:23.091Z,54.70
2018-07-11T01:05:25.410Z,54.50
2018-07-11T01:06:27.697Z,54.50
2018-07-11T01:07:29.995Z,54.60
2018-07-11T01:08:34.394Z,54.70
2018-07-11T01:09:39.918Z,54.60
2018-07-11T01:10:42.209Z,55.10
2018-07-11T01:11:44.939Z,55.00
2018-07-11T01:12:47.231Z,54.80
2018-07-11T01:13:49.538Z,55.00
2018-07-11T01:14:51.823Z,55.20
2018-07-11T01:15:54.105Z,55.00
2018-07-11T01:16:56.373Z,55.30
2018-07-11T01:18:04.221Z,55.40
2018-07-11T01:19:10.501Z,55.40
2018-07-11T01:20:13.129Z,55.50
2018-07-11T01:21:15.431Z,55.90
2018-07-11T01:22:17.645Z,55.90
2018-07-11T01:23:19.859Z,55.90
2018-07-11T01:24:22.107Z,55.70
2018-07-11T01:25:24.318Z,55.90
2018-07-11T01:26:28.018Z,55.90
2018-07-11T01:27:30.286Z,55.90
2018-07-11T01:28:32.514Z,55.90
2018-07-11T01:30:37.136Z,56.80
2018-07-11T01:31:39.342Z,55.80
2018-07-11T01:32:41.569Z,55.80
2018-07-11T01:33:43.801Z,55.80
2018-07-11T01:34:46.013Z,55.80
2018-07-11T01:35:48.268Z,55.80
2018-07-11T01:36:50.493Z,55.80
2018-07-11T01:38:55.226Z,55.90
2018-07-11T01:40:59.705Z,56.60
2018-07-11T01:42:01.958Z,55.90
2018-07-11T01:43:04.210Z,55.90
2018-07-11T01:44:06.428Z,55.90
2018-07-11T01:45:08.674Z,55.80
2018-07-11T01:46:10.903Z,55.90
2018-07-11T01:47:13.125Z,55.90
2018-07-11T01:48:15.387Z,55.90
2018-07-11T01:49:17.667Z,55.90
2018-07-11T01:50:19.936Z,56.00
2018-07-11T01:51:32.325Z,55.90
2018-07-11T01:52:46.067Z,55.90
2018-07-11T01:53:48.309Z,56.00
2018-07-11T01:54:50.520Z,56.00
2018-07-11T01:55:52.743Z,56.00
2018-07-11T01:56:55.036Z,56.10
2018-07-11T01:57:58.898Z,56.00
2018-07-11T01:59:01.153Z,56.10
2018-07-11T02:00:03.398Z,56.10
2018-07-11T02:01:05.919Z,56.10
2018-07-11T02:02:08.221Z,56.10
2018-07-11T02:03:10.537Z,56.10
2018-07-11T02:04:12.782Z,56.10
2018-07-11T02:05:15.491Z,56.00
2018-07-11T02:06:17.730Z,56.10
2018-07-11T02:07:19.989Z,56.00
2018-07-11T02:08:22.666Z,56.10
2018-07-11T02:09:24.975Z,56.80
2018-07-11T02:10:27.241Z,56.10
2018-07-11T02:11:29.486Z,56.10
2018-07-11T02:12:31.755Z,56.10
2018-07-11T02:13:34.033Z,56.10
2018-07-11T02:14:36.563Z,56.10
2018-07-11T02:15:38.809Z,56.10
2018-07-11T02:16:41.098Z,56.20
2018-07-11T02:17:43.376Z,56.70
2018-07-11T02:18:45.666Z,56.20
2018-07-11T02:19:47.953Z,56.40
2018-07-11T02:20:51.075Z,56.00
2018-07-11T02:21:53.327Z,56.50
2018-07-11T02:22:55.579Z,56.50
2018-07-11T02:24:00.374Z,57.20
2018-07-11T02:25:03.165Z,57.10
2018-07-11T02:26:05.468Z,57.20
2018-07-11T02:27:07.730Z,58.00
2018-07-11T02:28:10.271Z,58.40
2018-07-11T02:29:12.549Z,58.00
2018-07-11T02:30:14.820Z,58.50
2018-07-11T02:31:17.052Z,58.80
2018-07-11T02:32:19.306Z,59.00
2018-07-11T02:33:21.600Z,58.70
2018-07-11T02:34:29.489Z,60.00
2018-07-11T02:35:31.730Z,60.20
2018-07-11T02:36:33.988Z,60.10
2018-07-11T02:37:36.262Z,60.10
2018-07-11T02:38:38.518Z,60.10
2018-07-11T02:39:40.782Z,60.10
2018-07-11T02:40:43.009Z,60.10
2018-07-11T02:41:45.225Z,61.10
2018-07-11T02:43:49.714Z,60.00
2018-07-11T02:44:52.002Z,60.10
2018-07-11T02:48:03.734Z,60.10
2018-07-11T02:49:06.004Z,60.40
2018-07-11T02:50:08.222Z,60.20
2018-07-11T02:51:10.523Z,60.20
2018-07-11T02:52:12.754Z,60.20
2018-07-11T02:53:18.799Z,60.20
2018-07-11T02:54:21.154Z,60.20
2018-07-11T02:55:23.398Z,60.30
2018-07-11T02:56:25.649Z,60.30
2018-07-11T02:57:27.881Z,60.40
2018-07-11T02:58:30.131Z,60.40
2018-07-11T02:59:32.342Z,60.40
2018-07-11T03:00:34.544Z,60.50
2018-07-11T03:01:36.787Z,60.40
2018-07-11T03:02:39.028Z,59.90
2018-07-11T03:03:41.250Z,59.40
2018-07-11T03:04:43.500Z,59.50
2018-07-11T03:05:45.743Z,59.70
2018-07-11T03:06:47.988Z,60.50
2018-07-11T03:07:50.288Z,60.20
2018-07-11T03:08:52.547Z,59.40
2018-07-11T03:09:54.767Z,59.20
2018-07-11T03:10:57.015Z,59.00
2018-07-11T03:11:59.374Z,59.10
2018-07-11T03:13:01.584Z,58.70
2018-07-11T03:14:03.918Z,58.80
2018-07-11T03:15:06.154Z,59.00
2018-07-11T03:16:08.415Z,58.60
2018-07-11T03:17:10.651Z,58.60
2018-07-11T03:18:12.877Z,58.50
2018-07-11T03:19:15.123Z,58.20
2018-07-11T03:20:17.345Z,58.60
2018-07-11T03:21:19.660Z,58.20
2018-07-11T03:22:21.873Z,58.80
2018-07-11T03:23:24.524Z,58.50
2018-07-11T03:24:26.758Z,58.50
2018-07-11T03:25:29.145Z,58.70
2018-07-11T03:26:31.411Z,58.70
2018-07-11T03:28:35.902Z,58.70
2018-07-11T03:29:38.204Z,58.70
2018-07-11T03:30:40.507Z,58.70
2018-07-11T03:31:42.878Z,58.80
2018-07-11T03:32:45.116Z,58.80
2018-07-11T03:33:47.338Z,58.80
2018-07-11T03:35:52.039Z,59.00
2018-07-11T03:36:54.577Z,58.70
2018-07-11T03:37:56.858Z,58.60
2018-07-11T03:38:59.398Z,58.60
2018-07-11T03:40:01.697Z,58.90
2018-07-11T03:41:03.924Z,58.80
2018-07-11T03:42:06.178Z,58.80
2018-07-11T03:43:08.515Z,58.80
2018-07-11T03:44:10.768Z,58.90
2018-07-11T03:45:13.059Z,59.00
2018-07-11T03:46:15.335Z,59.00
2018-07-11T03:47:17.617Z,58.70
2018-07-11T03:48:19.831Z,58.90
2018-07-11T03:49:22.070Z,58.80
2018-07-11T03:50:24.338Z,59.10
2018-07-11T03:51:26.761Z,59.00
2018-07-11T03:52:29.002Z,58.70
2018-07-11T03:53:31.235Z,58.90
2018-07-11T03:55:35.712Z,59.40
2018-07-11T03:56:37.920Z,59.40
2018-07-11T03:57:40.589Z,59.50
2018-07-11T03:58:42.848Z,59.50
2018-07-11T03:59:45.109Z,59.40
2018-07-11T04:00:47.368Z,59.70
2018-07-11T04:01:49.614Z,59.70
2018-07-11T04:02:52.015Z,59.80
2018-07-11T04:03:54.259Z,59.80
2018-07-11T04:04:56.681Z,60.30
2018-07-11T04:05:58.730Z,60.20
2018-07-11T04:09:12.327Z,60.20
2018-07-11T04:10:14.607Z,60.10
2018-07-11T04:11:16.858Z,60.20
2018-07-11T04:12:19.111Z,61.00
2018-07-11T04:13:21.330Z,60.20
2018-07-11T04:14:23.539Z,60.30
2018-07-11T04:15:25.787Z,60.50
2018-07-11T04:16:28.012Z,60.70
2018-07-11T04:17:30.266Z,60.50
2018-07-11T04:18:32.567Z,60.80
2018-07-11T04:19:34.795Z,60.40
2018-07-11T04:20:37.071Z,60.20
2018-07-11T04:21:39.302Z,60.20
2018-07-11T04:22:41.566Z,60.50
2018-07-11T04:23:43.843Z,60.50
2018-07-11T04:24:55.115Z,60.70
2018-07-11T04:25:57.396Z,60.80
2018-07-11T04:26:59.676Z,60.90
2018-07-11T04:28:01.948Z,61.20
2018-07-11T04:29:04.247Z,61.20
2018-07-11T04:30:06.506Z,61.40
2018-07-11T04:31:08.772Z,61.20
2018-07-11T04:32:11.063Z,62.00
2018-07-11T04:33:13.336Z,61.50
2018-07-11T04:34:15.608Z,61.60
2018-07-11T04:35:17.864Z,61.40
2018-07-11T04:36:20.263Z,61.40
2018-07-11T04:37:22.507Z,61.30
2018-07-11T04:38:24.818Z,61.30
2018-07-11T04:39:27.047Z,61.10
2018-07-11T04:40:29.306Z,61.30
2018-07-11T04:41:31.519Z,61.60
2018-07-11T04:42:33.872Z,61.50
2018-07-11T04:43:36.061Z,61.90
2018-07-11T04:44:38.310Z,61.70
2018-07-11T04:45:40.538Z,61.80
2018-07-11T04:46:42.789Z,62.00
2018-07-11T04:47:45.079Z,62.00
2018-07-11T04:48:47.390Z,61.90
2018-07-11T04:49:49.739Z,61.80
2018-07-11T04:50:52.062Z,62.10
2018-07-11T04:51:54.355Z,62.30
2018-07-11T04:52:59.209Z,62.10
2018-07-11T04:54:01.513Z,62.00
2018-07-11T04:56:06.125Z,62.00
2018-07-11T04:57:08.451Z,62.40
2018-07-11T04:58:10.689Z,62.00
2018-07-11T04:59:13.022Z,62.10
2018-07-11T05:01:17.605Z,62.30
2018-07-11T05:02:19.842Z,62.50
2018-07-11T05:03:22.250Z,62.30
2018-07-11T05:04:24.502Z,62.20
2018-07-11T05:05:26.771Z,62.10
2018-07-11T05:06:29.025Z,62.10
2018-07-11T05:07:31.382Z,62.00
2018-07-11T05:08:33.630Z,62.30
2018-07-11T05:09:35.883Z,62.50
2018-07-11T05:10:38.147Z,62.30
2018-07-11T05:11:40.374Z,62.40
2018-07-11T05:12:42.589Z,62.20
2018-07-11T05:13:44.867Z,62.40
2018-07-11T05:14:47.093Z,62.50
2018-07-11T05:15:49.351Z,63.10
2018-07-11T05:16:51.632Z,62.30
2018-07-11T05:18:56.115Z,62.60
2018-07-11T05:19:58.378Z,63.20
2018-07-11T05:21:00.606Z,63.00
2018-07-11T05:22:02.890Z,63.10
2018-07-11T05:23:05.138Z,62.90
2018-07-11T05:24:07.455Z,62.80
2018-07-11T05:25:09.743Z,62.70
2018-07-11T05:26:12.000Z,63.00
2018-07-11T05:27:14.275Z,63.10
2018-07-11T05:28:16.509Z,62.70
2018-07-11T05:29:18.713Z,62.90
2018-07-11T05:30:20.947Z,62.80
2018-07-11T05:31:23.177Z,62.70
2018-07-11T05:32:25.405Z,62.70
2018-07-11T05:33:27.619Z,62.70
2018-07-11T05:34:29.854Z,62.70
2018-07-11T05:35:32.101Z,62.70
2018-07-11T05:36:34.363Z,62.60
2018-07-11T05:38:38.842Z,63.50
2018-07-11T05:39:41.071Z,63.70
2018-07-11T05:40:43.278Z,63.30
2018-07-11T05:41:45.486Z,63.20
2018-07-11T05:42:47.771Z,62.80
2018-07-11T05:43:50.003Z,63.00
2018-07-11T05:44:52.202Z,62.90
2018-07-11T05:45:54.410Z,62.80
2018-07-11T05:48:04.606Z,63.60
2018-07-11T05:49:06.805Z,63.70
2018-07-11T05:50:09.046Z,63.70
2018-07-11T05:51:11.262Z,63.70
2018-07-11T05:52:13.529Z,63.60
2018-07-11T05:55:20.142Z,63.80
2018-07-11T05:56:23.378Z,63.40
2018-07-11T05:57:25.639Z,63.70
2018-07-11T05:58:27.881Z,63.60
2018-07-11T05:59:30.386Z,63.80
2018-07-11T06:00:32.620Z,64.10
2018-07-11T06:01:34.861Z,64.10
2018-07-11T06:02:37.090Z,63.90
2018-07-11T06:03:39.341Z,63.80
2018-07-11T06:04:41.565Z,63.70
2018-07-11T06:05:43.811Z,63.50
2018-07-11T06:06:46.030Z,63.30
2018-07-11T06:07:48.260Z,63.10
2018-07-11T06:08:50.528Z,63.10
2018-07-11T06:10:55.013Z,63.20
2018-07-11T06:11:57.234Z,62.90
2018-07-11T06:12:59.481Z,63.00
2018-07-11T06:14:01.753Z,63.20
2018-07-11T06:15:03.994Z,62.90
2018-07-11T06:16:06.559Z,62.60
2018-07-11T06:17:08.810Z,63.30
2018-07-11T06:18:11.043Z,61.40
2018-07-11T06:19:13.270Z,61.20
2018-07-11T06:20:15.570Z,60.60
2018-07-11T06:21:18.131Z,60.60
2018-07-11T06:23:22.623Z,60.40
2018-07-11T06:24:24.883Z,59.70
2018-07-11T06:26:29.372Z,59.80
2018-07-11T06:27:31.594Z,59.30
2018-07-11T06:28:33.872Z,59.30
2018-07-11T06:29:36.112Z,59.30
2018-07-11T06:30:38.325Z,58.80
2018-07-11T06:31:40.535Z,58.80
2018-07-11T06:32:42.782Z,58.70
2018-07-11T06:33:45.026Z,58.60
2018-07-11T06:34:47.218Z,59.00
2018-07-11T06:35:49.446Z,58.70
2018-07-11T06:36:51.810Z,58.50
2018-07-11T06:37:54.080Z,59.00
2018-07-11T06:39:58.507Z,58.80
2018-07-11T06:41:00.738Z,59.00
2018-07-11T06:42:02.976Z,58.30
2018-07-11T06:43:05.251Z,58.90
2018-07-11T06:45:10.501Z,57.70
2018-07-11T06:46:12.738Z,58.40
2018-07-11T06:47:15.556Z,58.40
2018-07-11T06:48:17.774Z,57.20
2018-07-11T06:49:20.031Z,56.90
2018-07-11T06:51:24.502Z,56.10
2018-07-11T06:52:26.721Z,55.60
2018-07-11T06:53:28.942Z,55.90
2018-07-11T06:54:31.165Z,55.70
2018-07-11T06:55:33.383Z,55.80
2018-07-11T06:56:35.756Z,56.40
2018-07-11T06:57:38.043Z,55.70
2018-07-11T06:59:42.530Z,55.60
2018-07-11T07:00:44.785Z,55.30
2018-07-11T07:02:49.251Z,55.10
2018-07-11T07:03:51.509Z,55.20
2018-07-11T07:04:53.744Z,55.50
2018-07-11T07:05:56.034Z,56.10
2018-07-11T07:06:58.298Z,55.60
2018-07-11T07:08:00.584Z,55.20
2018-07-11T07:09:04.207Z,55.70
2018-07-11T07:10:06.566Z,55.80
2018-07-11T07:11:08.817Z,55.90
2018-07-11T07:12:11.029Z,56.00
2018-07-11T07:13:13.215Z,56.10
2018-07-11T07:14:15.452Z,56.10
2018-07-11T07:15:17.718Z,56.30
2018-07-11T07:16:19.939Z,57.30
2018-07-11T07:18:24.346Z,56.70
2018-07-11T07:20:28.743Z,57.10
2018-07-11T07:21:30.923Z,57.20
2018-07-11T07:22:33.505Z,56.60
2018-07-11T07:23:35.669Z,57.10
2018-07-11T07:24:37.877Z,57.20
2018-07-11T07:25:40.088Z,56.40
2018-07-11T07:26:42.294Z,56.20
2018-07-11T07:27:44.512Z,56.30
2018-07-11T07:28:46.731Z,56.10
2018-07-11T07:30:51.190Z,55.40
2018-07-11T07:31:53.377Z,55.20
2018-07-11T07:32:55.569Z,55.40
2018-07-11T07:35:00.003Z,55.00
2018-07-11T07:36:02.221Z,55.10
2018-07-11T07:37:04.462Z,55.40
2018-07-11T07:38:06.720Z,55.30
2018-07-11T07:39:08.914Z,55.50
2018-07-11T07:40:11.131Z,55.90
2018-07-11T07:41:13.322Z,55.50
2018-07-11T07:42:15.474Z,55.40
2018-07-11T07:43:17.684Z,54.90
2018-07-11T07:44:19.938Z,55.10
2018-07-11T07:45:22.201Z,54.80
2018-07-11T07:46:24.410Z,54.90
2018-07-11T07:47:32.711Z,55.30
2018-07-11T07:48:34.939Z,55.10
2018-07-11T07:49:37.162Z,55.10
2018-07-11T07:50:39.354Z,55.30
2018-07-11T07:51:41.559Z,55.50
2018-07-11T07:52:43.850Z,55.80
2018-07-11T07:54:48.318Z,55.00
2018-07-11T07:55:50.554Z,55.50
2018-07-11T07:56:52.802Z,55.20
2018-07-11T07:57:55.019Z,55.50
2018-07-11T07:59:59.521Z,55.40
2018-07-11T08:01:01.729Z,55.40
2018-07-11T08:02:03.990Z,55.30
2018-07-11T08:03:06.208Z,55.20
2018-07-11T08:04:09.638Z,55.30
2018-07-11T08:05:11.834Z,55.40
2018-07-11T08:06:14.054Z,55.50
2018-07-11T08:07:16.291Z,56.30
2018-07-11T08:09:20.733Z,55.90
2018-07-11T08:10:22.938Z,55.70
2018-07-11T08:11:25.129Z,55.60
2018-07-11T08:13:29.549Z,55.60
2018-07-11T08:15:33.970Z,55.80
2018-07-11T08:16:36.189Z,55.50
2018-07-11T08:17:38.418Z,55.10
2018-07-11T08:18:40.647Z,54.70
2018-07-11T08:19:42.852Z,55.00
2018-07-11T08:20:45.048Z,54.10
2018-07-11T08:21:47.252Z,53.60
2018-07-11T08:23:37.815Z,53.50
2018-07-11T08:24:51.862Z,54.00
2018-07-11T08:26:06.223Z,53.70
2018-07-11T08:27:24.605Z,53.40
2018-07-11T08:28:38.699Z,53.30
2018-07-11T08:29:50.741Z,54.20
2018-07-11T08:32:41.990Z,53.80
2018-07-11T08:34:02.295Z,53.70
2018-07-11T08:39:24.294Z,53.20
2018-07-11T08:42:51.583Z,53.10
2018-07-11T08:53:53.202Z,53.80
2018-07-11T08:55:02.083Z,53.60
2018-07-11T08:56:18.119Z,53.50
2018-07-11T08:59:37.157Z,53.50
2018-07-11T09:00:58.990Z,53.50
2018-07-11T09:02:12.634Z,53.80
2018-07-11T09:05:37.918Z,53.60
2018-07-11T09:08:50.875Z,53.80
2018-07-11T09:11:07.584Z,53.30
2018-07-11T09:12:27.721Z,52.10
2018-07-11T09:13:45.019Z,51.90
2018-07-11T09:15:58.027Z,52.00
2018-07-11T09:18:59.661Z,52.60
2018-07-11T09:20:10.318Z,53.00
2018-07-11T09:23:25.526Z,53.00
2018-07-11T09:24:36.209Z,53.00
2018-07-11T09:25:38.434Z,53.10
2018-07-11T09:26:40.669Z,53.20
2018-07-11T09:27:42.862Z,53.20
2018-07-11T09:28:45.186Z,53.10
2018-07-11T09:29:47.738Z,52.70
2018-07-11T09:30:49.930Z,52.40
2018-07-11T09:31:52.120Z,53.70
2018-07-11T09:32:54.366Z,51.60
2018-07-11T09:33:56.609Z,51.40
2018-07-11T09:34:58.785Z,51.50
2018-07-11T09:36:00.968Z,51.40
2018-07-11T09:37:03.195Z,50.90
2018-07-11T09:38:05.429Z,50.50
2018-07-11T09:39:07.662Z,50.50
2018-07-11T09:40:09.882Z,50.90
2018-07-11T09:41:12.097Z,50.90
2018-07-11T09:42:14.326Z,50.90
2018-07-11T09:43:16.538Z,50.90
2018-07-11T09:44:18.745Z,50.70
2018-07-11T09:45:20.946Z,51.20
2018-07-11T09:46:23.218Z,50.60
2018-07-11T09:47:26.954Z,50.10
2018-07-11T09:48:29.492Z,49.70
2018-07-11T09:49:31.714Z,49.50
2018-07-11T09:50:33.973Z,49.90
2018-07-11T09:51:36.195Z,49.50
2018-07-11T09:52:38.389Z,50.10
2018-07-11T09:53:40.626Z,50.30
2018-07-11T09:54:42.855Z,49.60
2018-07-11T09:55:45.087Z,49.50
2018-07-11T09:56:47.763Z,49.30
2018-07-11T09:57:50.066Z,48.30
2018-07-11T09:58:52.225Z,48.80
2018-07-11T09:59:54.503Z,47.80
2018-07-11T10:01:02.578Z,48.10
2018-07-11T10:02:04.802Z,48.20
2018-07-11T10:03:07.065Z,49.00
2018-07-11T10:05:12.729Z,48.10
2018-07-11T10:06:14.898Z,47.80
2018-07-11T10:07:17.136Z,47.80
2018-07-11T10:08:19.397Z,47.50
2018-07-11T10:09:21.618Z,47.20
2018-07-11T10:10:23.883Z,47.70
2018-07-11T10:11:26.143Z,47.50
2018-07-11T10:12:28.427Z,47.50
2018-07-11T10:13:30.634Z,47.40
2018-07-11T10:14:32.849Z,47.30
2018-07-11T10:15:35.021Z,46.50
2018-07-11T10:16:37.218Z,46.70
2018-07-11T10:17:39.466Z,47.10
2018-07-11T10:18:52.681Z,47.20
2018-07-11T10:19:54.885Z,46.50
2018-07-11T10:20:57.093Z,47.00
2018-07-11T10:21:59.306Z,47.00
2018-07-11T10:23:01.555Z,47.60
2018-07-11T10:24:03.786Z,47.90
2018-07-11T10:25:06.599Z,48.00
2018-07-11T10:26:08.838Z,48.50
2018-07-11T10:27:11.122Z,48.70
2018-07-11T10:28:18.559Z,49.80
2018-07-11T10:29:20.761Z,49.10
2018-07-11T10:30:22.979Z,48.70
2018-07-11T10:31:26.251Z,48.30
2018-07-11T10:32:28.473Z,48.40
2018-07-11T10:33:30.716Z,48.40
2018-07-11T10:34:32.930Z,47.40
2018-07-11T10:35:35.134Z,47.90
2018-07-11T10:36:37.338Z,47.50
2018-07-11T10:37:39.511Z,47.90
2018-07-11T10:38:41.737Z,47.90
2018-07-11T10:39:43.968Z,48.20
2018-07-11T10:40:46.293Z,48.30
2018-07-11T10:41:48.562Z,48.10
2018-07-11T10:42:50.785Z,47.80
2018-07-11T10:43:52.959Z,48.10
2018-07-11T10:44:55.314Z,47.10
2018-07-11T10:45:57.486Z,46.80
2018-07-11T10:47:05.678Z,46.70
2018-07-11T10:48:07.914Z,46.90
2018-07-11T10:49:10.220Z,47.90
2018-07-11T10:50:12.427Z,47.00
2018-07-11T10:51:14.618Z,47.30
2018-07-11T10:52:16.823Z,48.00
2018-07-11T10:54:21.242Z,48.50
2018-07-11T10:56:25.714Z,48.50
2018-07-11T10:57:27.895Z,49.10
2018-07-11T10:58:30.157Z,49.20
2018-07-11T10:59:32.424Z,49.40
2018-07-11T11:00:37.748Z,49.30
2018-07-11T11:01:36.916Z,49.30
2018-07-11T11:03:41.321Z,49.30
2018-07-11T11:04:43.576Z,49.30
2018-07-11T11:05:45.712Z,49.40
2018-07-11T11:07:56.995Z,49.60
2018-07-11T11:08:59.151Z,49.50
2018-07-11T11:10:01.495Z,49.20
2018-07-11T11:11:03.774Z,49.40
2018-07-11T11:12:06.085Z,49.60
2018-07-11T11:13:08.260Z,49.20
2018-07-11T11:14:10.473Z,49.70
2018-07-11T11:15:12.685Z,50.00
2018-07-11T11:16:14.906Z,49.90
2018-07-11T11:17:17.116Z,49.90
2018-07-11T11:18:19.859Z,50.20
2018-07-11T11:19:22.056Z,50.80
2018-07-11T11:20:24.275Z,50.50
2018-07-11T11:21:26.499Z,49.80
2018-07-11T11:22:29.059Z,50.10
2018-07-11T11:23:31.246Z,50.10
2018-07-11T11:24:33.470Z,49.90
2018-07-11T11:25:35.762Z,50.10
2018-07-11T11:26:37.943Z,50.50
2018-07-11T11:27:40.145Z,51.10
2018-07-11T11:28:42.388Z,50.70
2018-07-11T11:29:44.613Z,50.90
2018-07-11T11:30:46.866Z,50.80
2018-07-11T11:31:49.175Z,50.60
2018-07-11T11:32:51.430Z,50.40
2018-07-11T11:33:53.706Z,51.00
2018-07-11T11:34:55.931Z,51.10
2018-07-11T11:35:58.163Z,50.80
2018-07-11T11:37:00.355Z,50.40
2018-07-11T11:38:02.610Z,50.20
2018-07-11T11:40:07.046Z,49.10
2018-07-11T11:41:09.278Z,49.10
2018-07-11T11:42:11.923Z,48.60
2018-07-11T11:43:13.801Z,48.00
2018-07-11T11:45:18.358Z,46.80
2018-07-11T11:46:20.583Z,47.10
2018-07-11T11:48:26.890Z,47.00
2018-07-11T11:49:29.563Z,47.30
2018-07-11T11:50:32.115Z,47.10
2018-07-11T11:51:34.363Z,46.90
2018-07-11T11:52:36.628Z,46.40
2018-07-11T11:53:38.874Z,46.80
2018-07-11T11:54:41.112Z,46.20
2018-07-11T11:55:43.377Z,46.70
2018-07-11T11:57:48.154Z,46.50
2018-07-11T11:58:50.584Z,46.80
2018-07-11T11:59:52.826Z,46.20
2018-07-11T12:00:55.067Z,46.40
2018-07-11T12:01:57.326Z,46.20
2018-07-11T12:02:59.562Z,46.30
2018-07-11T12:04:01.810Z,46.90
2018-07-11T12:05:04.055Z,46.70
2018-07-11T12:06:06.285Z,46.90
2018-07-11T12:07:08.577Z,46.80
2018-07-11T12:08:10.791Z,47.50
2018-07-11T12:09:13.068Z,48.60
2018-07-11T12:10:15.379Z,47.50
2018-07-11T12:11:17.627Z,47.80
2018-07-11T12:12:19.890Z,47.90
2018-07-11T12:13:22.135Z,47.30
2018-07-11T12:14:24.382Z,47.70
2018-07-11T12:15:26.602Z,47.50
2018-07-11T12:16:28.832Z,47.10
2018-07-11T12:17:31.102Z,47.10
2018-07-11T12:18:33.479Z,47.00
2018-07-11T12:19:35.706Z,46.90
2018-07-11T12:20:37.955Z,47.10
2018-07-11T12:21:40.219Z,46.60
2018-07-11T12:22:42.486Z,46.00
2018-07-11T12:23:44.783Z,46.10
2018-07-11T12:24:47.397Z,45.80
2018-07-11T12:25:58.346Z,45.40
2018-07-11T12:27:00.730Z,46.00
2018-07-11T12:28:02.950Z,46.20
2018-07-11T12:29:05.214Z,46.20
2018-07-11T12:30:07.454Z,46.20
2018-07-11T12:31:09.698Z,46.20
2018-07-11T12:32:11.982Z,46.60
2018-07-11T12:33:14.253Z,46.50
2018-07-11T12:34:16.508Z,46.40
2018-07-11T12:35:18.839Z,46.50
2018-07-11T12:36:21.115Z,46.50
2018-07-11T12:37:23.361Z,47.00
2018-07-11T12:38:26.018Z,46.90
2018-07-11T12:39:28.274Z,46.90
2018-07-11T12:40:30.518Z,47.00
2018-07-11T12:41:33.811Z,47.30
2018-07-11T12:42:36.880Z,46.60
2018-07-11T12:43:40.293Z,46.40
2018-07-11T12:44:43.047Z,45.80
2018-07-11T12:45:45.901Z,44.10
2018-07-11T12:46:48.195Z,44.30
2018-07-11T12:47:56.240Z,44.40
2018-07-11T12:50:02.704Z,44.60
2018-07-11T12:51:04.955Z,44.80
2018-07-11T12:52:07.231Z,44.80
2018-07-11T12:53:09.521Z,43.70
2018-07-11T12:55:14.045Z,43.00
2018-07-11T12:56:16.298Z,43.70
2018-07-11T12:57:18.581Z,44.00
2018-07-11T12:58:20.802Z,44.80
2018-07-11T13:00:26.082Z,44.10
2018-07-11T13:01:28.714Z,44.70
2018-07-11T13:02:31.933Z,45.60
2018-07-11T13:03:34.221Z,46.40
2018-07-11T13:04:36.474Z,46.30
2018-07-11T13:05:38.758Z,46.60
2018-07-11T13:06:41.026Z,46.70
2018-07-11T13:07:43.282Z,46.90
2018-07-11T13:08:45.547Z,46.90
2018-07-11T13:09:47.791Z,47.20
2018-07-11T13:10:51.254Z,47.50
2018-07-11T13:11:53.547Z,47.70
2018-07-11T13:12:55.814Z,47.50
2018-07-11T13:13:58.068Z,47.60
2018-07-11T13:15:00.326Z,47.50
2018-07-11T13:16:02.688Z,48.50
2018-07-11T13:17:04.855Z,48.10
2018-07-11T13:18:07.099Z,47.80
2018-07-11T13:19:09.349Z,47.70
2018-07-11T13:20:11.629Z,47.60
2018-07-11T13:21:14.011Z,47.60
2018-07-11T13:22:16.274Z,47.70
2018-07-11T13:23:18.526Z,48.10
2018-07-11T13:24:20.794Z,47.90
2018-07-11T13:25:23.086Z,47.90
2018-07-11T13:26:25.326Z,48.20
2018-07-11T13:27:27.558Z,48.00
2018-07-11T13:28:29.808Z,48.00
2018-07-11T13:29:32.084Z,48.00
2018-07-11T13:30:34.347Z,47.80
2018-07-11T13:31:36.578Z,47.70
2018-07-11T13:32:38.858Z,48.20
2018-07-11T13:33:41.392Z,48.20
2018-07-11T13:34:43.660Z,47.70
2018-07-11T13:35:45.922Z,47.30
2018-07-11T13:36:48.403Z,47.20
2018-07-11T13:37:50.714Z,47.00
2018-07-11T13:38:52.992Z,46.80
2018-07-11T13:39:55.272Z,46.60
2018-07-11T13:41:59.799Z,47.50
2018-07-11T13:43:02.059Z,47.40
2018-07-11T13:45:06.582Z,47.60
2018-07-11T13:46:08.842Z,47.80
2018-07-11T13:47:16.801Z,47.70
2018-07-11T13:48:19.045Z,47.40
2018-07-11T13:49:21.295Z,47.10
2018-07-11T13:50:23.574Z,46.80
2018-07-11T13:51:25.846Z,46.70
2018-07-11T13:53:37.207Z,47.60
2018-07-11T13:54:39.466Z,46.70
2018-07-11T13:55:41.798Z,46.70
2018-07-11T13:56:45.023Z,47.70
2018-07-11T13:57:47.304Z,46.80
2018-07-11T13:58:49.587Z,46.90
2018-07-11T13:59:51.847Z,46.10
2018-07-11T14:00:54.084Z,45.50
2018-07-11T14:01:56.339Z,45.90
2018-07-11T14:02:58.586Z,45.90
2018-07-11T14:04:01.334Z,45.80
2018-07-11T14:05:03.602Z,45.20
2018-07-11T14:06:05.871Z,45.50
2018-07-11T14:07:08.121Z,45.00
2018-07-11T14:08:10.385Z,45.40
2018-07-11T14:09:12.672Z,45.50
2018-07-11T14:10:14.936Z,45.30
2018-07-11T14:11:17.227Z,45.70
2018-07-11T14:12:19.478Z,45.60
2018-07-11T14:13:21.727Z,45.50
2018-07-11T14:14:23.997Z,45.40
2018-07-11T14:15:26.251Z,45.70
2018-07-11T14:16:28.585Z,45.80
2018-07-11T14:17:30.842Z,45.90
2018-07-11T14:18:33.126Z,46.00
2018-07-11T14:19:35.362Z,46.20
2018-07-11T14:20:37.592Z,46.00
2018-07-11T14:21:39.896Z,46.20
2018-07-11T14:23:44.410Z,47.20
2018-07-11T14:24:46.676Z,46.10
2018-07-11T14:26:52.173Z,46.10
2018-07-11T14:27:54.442Z,46.10
2018-07-11T14:28:56.816Z,45.90
2018-07-11T14:29:59.083Z,45.50
2018-07-11T14:31:02.996Z,46.10
2018-07-11T14:32:06.017Z,45.70
2018-07-11T14:33:09.070Z,46.20
2018-07-11T14:34:11.375Z,45.60
2018-07-11T14:35:14.253Z,46.30
2018-07-11T14:36:17.615Z,46.10
2018-07-11T14:37:20.232Z,46.20
2018-07-11T14:38:22.702Z,45.90
2018-07-11T14:39:24.972Z,45.70
2018-07-11T14:41:29.579Z,45.60
2018-07-11T14:42:31.862Z,45.90
2018-07-11T14:43:34.162Z,44.80
2018-07-11T14:44:36.446Z,45.30
2018-07-11T14:45:38.762Z,45.70
2018-07-11T14:46:41.047Z,45.50
2018-07-11T14:47:49.081Z,44.70
2018-07-11T14:48:51.568Z,45.30
2018-07-11T14:49:53.830Z,44.80
2018-07-11T14:50:56.135Z,45.10
2018-07-11T14:51:58.466Z,45.40
2018-07-11T14:53:00.754Z,45.80
2018-07-11T14:54:03.026Z,45.70
2018-07-11T14:55:05.781Z,45.80
2018-07-11T14:56:08.103Z,46.00
2018-07-11T14:57:10.370Z,45.80
2018-07-11T14:58:12.820Z,46.10